sensor_id;sensor_type;location;lat;lon;timestamp;pressure;altitude;pressure_sealevel;temperature;humidity
32131;BME280;18639;50.716;7.086;2023-04-29T00:01:55;100105.19;;;13.39;100.00
32131;BME280;18639;50.716;7.086;2023-04-29T00:04:26;100100.16;;;13.27;100.00
32131;BME280;18639;50.716;7.086;2023-04-29T00:06:51;100119.91;;;13.50;100.00
32131;BME280;18639;50.716;7.086;2023-04-29T00:09:16;100104.66;;;13.25;100.00
32131;BME280;18639;50.716;7.086;2023-04-29T00:11:42;100122.44;;;13.29;100.00
32131;BME280;18639;50.716;7.086;2023-04-29T00:14:07;100123.88;;;13.22;100.00
32131;BME280;18639;50.716;7.086;2023-04-29T00:16:32;100128.22;;;13.22;100.00
32131;BME280;18639;50.716;7.086;2023-04-29T00:18:58;100055.19;;;12.72;100.00
32131;BME280;18639;50.716;7.086;2023-04-29T00:21:24;100141.00;;;13.14;100.00
32131;BME280;18639;50.716;7.086;2023-04-29T00:23:51;100123.28;;;13.07;100.00
32131;BME280;18639;50.716;7.086;2023-04-29T00:26:16;100109.59;;;13.05;100.00
32131;BME280;18639;50.716;7.086;2023-04-29T00:28:42;100123.50;;;13.04;100.00
32131;BME280;18639;50.716;7.086;2023-04-29T00:31:07;100083.94;;;12.80;100.00
32131;BME280;18639;50.716;7.086;2023-04-29T00:33:32;100096.53;;;12.85;100.00
32131;BME280;18639;50.716;7.086;2023-04-29T00:35:58;100127.03;;;13.03;100.00
32131;BME280;18639;50.716;7.086;2023-04-29T00:38:23;100163.63;;;13.23;100.00
32131;BME280;18639;50.716;7.086;2023-04-29T00:40:48;100094.66;;;12.87;100.00
32131;BME280;18639;50.716;7.086;2023-04-29T00:43:14;100146.38;;;13.11;100.00
32131;BME280;18639;50.716;7.086;2023-04-29T00:45:39;100160.91;;;13.24;100.00
32131;BME280;18639;50.716;7.086;2023-04-29T00:48:05;100136.47;;;13.04;100.00
32131;BME280;18639;50.716;7.086;2023-04-29T00:50:30;100159.84;;;13.16;100.00
32131;BME280;18639;50.716;7.086;2023-04-29T00:52:56;100128.97;;;12.90;100.00
32131;BME280;18639;50.716;7.086;2023-04-29T00:55:22;100132.97;;;12.94;100.00
32131;BME280;18639;50.716;7.086;2023-04-29T00:57:48;100080.16;;;12.62;100.00
32131;BME280;18639;50.716;7.086;2023-04-29T01:00:17;100149.13;;;12.98;100.00
32131;BME280;18639;50.716;7.086;2023-04-29T01:02:43;100165.94;;;13.03;100.00
32131;BME280;18639;50.716;7.086;2023-04-29T01:05:10;100131.31;;;12.82;100.00
32131;BME280;18639;50.716;7.086;2023-04-29T01:08:19;100170.19;;;13.04;100.00
32131;BME280;18639;50.716;7.086;2023-04-29T01:11:07;100145.94;;;12.83;100.00
32131;BME280;18639;50.716;7.086;2023-04-29T01:13:57;100167.41;;;12.96;100.00
32131;BME280;18639;50.716;7.086;2023-04-29T01:16:29;100159.81;;;12.82;100.00
32131;BME280;18639;50.716;7.086;2023-04-29T01:19:01;100174.22;;;12.86;100.00
32131;BME280;18639;50.716;7.086;2023-04-29T01:21:26;100152.75;;;12.62;100.00
32131;BME280;18639;50.716;7.086;2023-04-29T01:23:52;100136.84;;;12.55;100.00
32131;BME280;18639;50.716;7.086;2023-04-29T01:26:21;100181.19;;;12.75;100.00
32131;BME280;18639;50.716;7.086;2023-04-29T01:29:05;100175.63;;;12.79;100.00
32131;BME280;18639;50.716;7.086;2023-04-29T01:31:37;100132.81;;;12.40;100.00
32131;BME280;18639;50.716;7.086;2023-04-29T01:34:30;100182.81;;;12.64;100.00
32131;BME280;18639;50.716;7.086;2023-04-29T01:37:18;100189.03;;;12.62;100.00
32131;BME280;18639;50.716;7.086;2023-04-29T01:40:02;100187.16;;;12.53;100.00
32131;BME280;18639;50.716;7.086;2023-04-29T01:42:43;100186.22;;;12.54;100.00
32131;BME280;18639;50.716;7.086;2023-04-29T01:45:10;100183.97;;;12.49;100.00
32131;BME280;18639;50.716;7.086;2023-04-29T01:47:40;100185.63;;;12.39;100.00
32131;BME280;18639;50.716;7.086;2023-04-29T01:50:06;100140.19;;;12.11;100.00
32131;BME280;18639;50.716;7.086;2023-04-29T01:52:31;100159.66;;;12.28;100.00
32131;BME280;18639;50.716;7.086;2023-04-29T01:54:59;100164.25;;;12.36;100.00
32131;BME280;18639;50.716;7.086;2023-04-29T01:57:25;100206.22;;;12.52;100.00
32131;BME280;18639;50.716;7.086;2023-04-29T01:59:50;100183.25;;;12.47;100.00
32131;BME280;18639;50.716;7.086;2023-04-29T02:02:16;100193.28;;;12.52;100.00
32131;BME280;18639;50.716;7.086;2023-04-29T02:04:45;100207.66;;;12.56;100.00
32131;BME280;18639;50.716;7.086;2023-04-29T02:07:10;100202.44;;;12.45;100.00
32131;BME280;18639;50.716;7.086;2023-04-29T02:09:35;100199.16;;;12.43;100.00
32131;BME280;18639;50.716;7.086;2023-04-29T02:12:01;100212.00;;;12.44;100.00
32131;BME280;18639;50.716;7.086;2023-04-29T02:14:28;100186.06;;;12.33;100.00
32131;BME280;18639;50.716;7.086;2023-04-29T02:16:54;100203.63;;;12.41;100.00
32131;BME280;18639;50.716;7.086;2023-04-29T02:19:19;100199.38;;;12.40;100.00
32131;BME280;18639;50.716;7.086;2023-04-29T02:21:45;100186.41;;;12.29;100.00
32131;BME280;18639;50.716;7.086;2023-04-29T02:24:10;100195.31;;;12.24;100.00
32131;BME280;18639;50.716;7.086;2023-04-29T02:26:35;100220.34;;;12.37;100.00
32131;BME280;18639;50.716;7.086;2023-04-29T02:29:02;100212.81;;;12.34;100.00
32131;BME280;18639;50.716;7.086;2023-04-29T02:31:27;100224.78;;;12.35;100.00
32131;BME280;18639;50.716;7.086;2023-04-29T02:33:53;100214.53;;;12.22;100.00
32131;BME280;18639;50.716;7.086;2023-04-29T02:36:18;100216.41;;;12.20;100.00
32131;BME280;18639;50.716;7.086;2023-04-29T02:38:44;100227.72;;;12.30;100.00
32131;BME280;18639;50.716;7.086;2023-04-29T02:41:09;100227.03;;;12.28;100.00
32131;BME280;18639;50.716;7.086;2023-04-29T02:43:35;100217.94;;;12.22;100.00
32131;BME280;18639;50.716;7.086;2023-04-29T02:46:00;100224.00;;;12.10;100.00
32131;BME280;18639;50.716;7.086;2023-04-29T02:48:25;100224.00;;;12.10;100.00
32131;BME280;18639;50.716;7.086;2023-04-29T02:50:50;100229.34;;;12.20;100.00
32131;BME280;18639;50.716;7.086;2023-04-29T02:53:16;100240.78;;;12.17;100.00
32131;BME280;18639;50.716;7.086;2023-04-29T02:55:42;100237.47;;;12.15;100.00
32131;BME280;18639;50.716;7.086;2023-04-29T02:58:08;100206.50;;;11.90;100.00
32131;BME280;18639;50.716;7.086;2023-04-29T03:00:33;100219.72;;;11.98;100.00
32131;BME280;18639;50.716;7.086;2023-04-29T03:02:59;100230.22;;;12.08;100.00
32131;BME280;18639;50.716;7.086;2023-04-29T03:05:24;100244.72;;;12.10;100.00
32131;BME280;18639;50.716;7.086;2023-04-29T03:07:49;100215.59;;;11.96;100.00
32131;BME280;18639;50.716;7.086;2023-04-29T03:10:14;100236.63;;;12.15;100.00
32131;BME280;18639;50.716;7.086;2023-04-29T03:12:40;100234.47;;;12.09;100.00
32131;BME280;18639;50.716;7.086;2023-04-29T03:18:10;100191.13;;;11.76;100.00
32131;BME280;18639;50.716;7.086;2023-04-29T03:20:36;100201.19;;;11.80;100.00
32131;BME280;18639;50.716;7.086;2023-04-29T03:23:01;100248.09;;;12.00;100.00
32131;BME280;18639;50.716;7.086;2023-04-29T03:28:59;100187.75;;;11.63;100.00
32131;BME280;18639;50.716;7.086;2023-04-29T03:31:24;100173.97;;;11.62;100.00
32131;BME280;18639;50.716;7.086;2023-04-29T03:33:51;100204.56;;;11.81;100.00
32131;BME280;18639;50.716;7.086;2023-04-29T03:36:17;100241.16;;;12.00;100.00
32131;BME280;18639;50.716;7.086;2023-04-29T03:38:42;100208.13;;;11.80;100.00
32131;BME280;18639;50.716;7.086;2023-04-29T03:41:08;100239.75;;;12.07;100.00
32131;BME280;18639;50.716;7.086;2023-04-29T03:43:33;100241.66;;;12.05;100.00
32131;BME280;18639;50.716;7.086;2023-04-29T03:45:59;100220.38;;;11.89;100.00
32131;BME280;18639;50.716;7.086;2023-04-29T03:48:24;100229.69;;;11.92;100.00
32131;BME280;18639;50.716;7.086;2023-04-29T03:50:50;100224.13;;;11.85;100.00
32131;BME280;18639;50.716;7.086;2023-04-29T03:53:15;100243.13;;;11.97;100.00
32131;BME280;18639;50.716;7.086;2023-04-29T03:55:41;100222.69;;;11.81;100.00
32131;BME280;18639;50.716;7.086;2023-04-29T03:58:07;100235.09;;;11.89;100.00
32131;BME280;18639;50.716;7.086;2023-04-29T04:00:32;100243.19;;;11.84;100.00
32131;BME280;18639;50.716;7.086;2023-04-29T04:02:58;100250.97;;;11.84;100.00
32131;BME280;18639;50.716;7.086;2023-04-29T04:05:23;100244.66;;;11.75;100.00
32131;BME280;18639;50.716;7.086;2023-04-29T04:07:53;100251.50;;;11.76;100.00
32131;BME280;18639;50.716;7.086;2023-04-29T04:10:18;100261.81;;;11.89;100.00
32131;BME280;18639;50.716;7.086;2023-04-29T04:12:44;100261.03;;;11.76;100.00
32131;BME280;18639;50.716;7.086;2023-04-29T04:15:10;100242.38;;;11.71;100.00
32131;BME280;18639;50.716;7.086;2023-04-29T04:17:36;100261.88;;;11.64;100.00
32131;BME280;18639;50.716;7.086;2023-04-29T04:20:01;100255.25;;;11.60;100.00
32131;BME280;18639;50.716;7.086;2023-04-29T04:22:26;100282.34;;;11.67;100.00
32131;BME280;18639;50.716;7.086;2023-04-29T04:24:55;100275.84;;;11.61;100.00
32131;BME280;18639;50.716;7.086;2023-04-29T04:27:20;100263.38;;;11.43;100.00
32131;BME280;18639;50.716;7.086;2023-04-29T04:29:45;100277.94;;;11.44;100.00
32131;BME280;18639;50.716;7.086;2023-04-29T04:32:21;100278.66;;;11.46;100.00
32131;BME280;18639;50.716;7.086;2023-04-29T04:34:48;100223.47;;;11.09;100.00
32131;BME280;18639;50.716;7.086;2023-04-29T04:37:19;100288.00;;;11.35;100.00
32131;BME280;18639;50.716;7.086;2023-04-29T04:39:44;100305.69;;;11.29;100.00
32131;BME280;18639;50.716;7.086;2023-04-29T04:42:10;100276.44;;;11.03;100.00
32131;BME280;18639;50.716;7.086;2023-04-29T04:44:35;100305.09;;;11.25;100.00
32131;BME280;18639;50.716;7.086;2023-04-29T04:47:01;100266.41;;;10.98;100.00
32131;BME280;18639;50.716;7.086;2023-04-29T04:49:27;100269.81;;;10.86;100.00
32131;BME280;18639;50.716;7.086;2023-04-29T04:51:58;100319.44;;;11.17;100.00
32131;BME280;18639;50.716;7.086;2023-04-29T04:54:32;100269.59;;;10.77;100.00
32131;BME280;18639;50.716;7.086;2023-04-29T04:57:01;100293.41;;;10.94;100.00
32131;BME280;18639;50.716;7.086;2023-04-29T04:59:43;100326.59;;;11.13;100.00
32131;BME280;18639;50.716;7.086;2023-04-29T05:02:08;100277.66;;;10.72;100.00
32131;BME280;18639;50.716;7.086;2023-04-29T05:04:33;100327.41;;;11.01;100.00
32131;BME280;18639;50.716;7.086;2023-04-29T05:07:05;100312.81;;;10.87;100.00
32131;BME280;18639;50.716;7.086;2023-04-29T05:09:30;100334.03;;;10.92;100.00
32131;BME280;18639;50.716;7.086;2023-04-29T05:11:56;100327.91;;;10.81;100.00
32131;BME280;18639;50.716;7.086;2023-04-29T05:14:23;100350.91;;;10.98;100.00
32131;BME280;18639;50.716;7.086;2023-04-29T05:16:48;100352.97;;;10.93;100.00
32131;BME280;18639;50.716;7.086;2023-04-29T05:19:13;100357.59;;;11.01;100.00
32131;BME280;18639;50.716;7.086;2023-04-29T05:21:39;100359.66;;;10.95;100.00
32131;BME280;18639;50.716;7.086;2023-04-29T05:24:04;100366.94;;;11.03;100.00
32131;BME280;18639;50.716;7.086;2023-04-29T05:26:30;100331.22;;;10.83;100.00
32131;BME280;18639;50.716;7.086;2023-04-29T05:28:55;100335.34;;;10.73;100.00
32131;BME280;18639;50.716;7.086;2023-04-29T05:31:21;100347.13;;;10.77;100.00
32131;BME280;18639;50.716;7.086;2023-04-29T05:33:46;100337.94;;;10.73;100.00
32131;BME280;18639;50.716;7.086;2023-04-29T05:36:11;100356.88;;;10.86;100.00
32131;BME280;18639;50.716;7.086;2023-04-29T05:38:37;100361.06;;;10.74;100.00
32131;BME280;18639;50.716;7.086;2023-04-29T05:41:02;100354.53;;;10.69;100.00
32131;BME280;18639;50.716;7.086;2023-04-29T05:43:28;100365.41;;;10.74;100.00
32131;BME280;18639;50.716;7.086;2023-04-29T05:45:54;100390.78;;;10.81;100.00
32131;BME280;18639;50.716;7.086;2023-04-29T05:48:20;100387.03;;;10.73;100.00
32131;BME280;18639;50.716;7.086;2023-04-29T05:50:45;100400.66;;;10.75;100.00
32131;BME280;18639;50.716;7.086;2023-04-29T05:53:12;100400.34;;;10.67;100.00
32131;BME280;18639;50.716;7.086;2023-04-29T05:55:38;100399.91;;;10.60;100.00
32131;BME280;18639;50.716;7.086;2023-04-29T05:58:04;100411.69;;;10.64;100.00
32131;BME280;18639;50.716;7.086;2023-04-29T06:00:29;100402.41;;;10.62;100.00
32131;BME280;18639;50.716;7.086;2023-04-29T06:02:55;100392.38;;;10.43;100.00
32131;BME280;18639;50.716;7.086;2023-04-29T06:05:21;100384.94;;;10.38;100.00
32131;BME280;18639;50.716;7.086;2023-04-29T06:07:47;100422.94;;;10.63;100.00
32131;BME280;18639;50.716;7.086;2023-04-29T06:10:13;100404.75;;;10.52;100.00
32131;BME280;18639;50.716;7.086;2023-04-29T06:12:39;100398.47;;;10.42;100.00
32131;BME280;18639;50.716;7.086;2023-04-29T06:15:04;100429.53;;;10.54;100.00
32131;BME280;18639;50.716;7.086;2023-04-29T06:17:30;100416.47;;;10.43;100.00
32131;BME280;18639;50.716;7.086;2023-04-29T06:19:56;100448.38;;;10.57;100.00
32131;BME280;18639;50.716;7.086;2023-04-29T06:22:21;100446.50;;;10.59;100.00
32131;BME280;18639;50.716;7.086;2023-04-29T06:24:47;100453.78;;;10.66;100.00
32131;BME280;18639;50.716;7.086;2023-04-29T06:27:14;100450.06;;;10.70;100.00
32131;BME280;18639;50.716;7.086;2023-04-29T06:29:40;100461.03;;;10.74;100.00
32131;BME280;18639;50.716;7.086;2023-04-29T06:32:06;100459.41;;;10.73;100.00
32131;BME280;18639;50.716;7.086;2023-04-29T06:34:31;100453.28;;;10.74;100.00
32131;BME280;18639;50.716;7.086;2023-04-29T06:36:57;100455.88;;;10.74;100.00
32131;BME280;18639;50.716;7.086;2023-04-29T06:39:22;100462.53;;;10.78;100.00
32131;BME280;18639;50.716;7.086;2023-04-29T06:41:47;100465.19;;;10.76;100.00
32131;BME280;18639;50.716;7.086;2023-04-29T06:44:12;100468.00;;;10.73;100.00
32131;BME280;18639;50.716;7.086;2023-04-29T06:46:38;100471.59;;;10.71;100.00
32131;BME280;18639;50.716;7.086;2023-04-29T06:49:03;100474.25;;;10.69;100.00
32131;BME280;18639;50.716;7.086;2023-04-29T06:51:29;100483.00;;;10.81;100.00
32131;BME280;18639;50.716;7.086;2023-04-29T06:53:56;100482.81;;;10.84;100.00
32131;BME280;18639;50.716;7.086;2023-04-29T06:56:21;100481.16;;;10.83;100.00
32131;BME280;18639;50.716;7.086;2023-04-29T06:58:47;100483.66;;;10.84;100.00
32131;BME280;18639;50.716;7.086;2023-04-29T07:01:13;100488.41;;;10.90;100.00
32131;BME280;18639;50.716;7.086;2023-04-29T07:03:38;100499.41;;;10.94;100.00
32131;BME280;18639;50.716;7.086;2023-04-29T07:06:03;100499.41;;;10.94;100.00
32131;BME280;18639;50.716;7.086;2023-04-29T07:08:29;100495.91;;;10.95;100.00
32131;BME280;18639;50.716;7.086;2023-04-29T07:10:55;100502.69;;;10.96;100.00
32131;BME280;18639;50.716;7.086;2023-04-29T07:13:21;100493.56;;;10.90;100.00
32131;BME280;18639;50.716;7.086;2023-04-29T07:15:46;100519.72;;;11.00;100.00
32131;BME280;18639;50.716;7.086;2023-04-29T07:18:12;100502.69;;;10.96;100.00
32131;BME280;18639;50.716;7.086;2023-04-29T07:20:37;100503.09;;;10.90;100.00
32131;BME280;18639;50.716;7.086;2023-04-29T07:23:02;100519.28;;;11.06;100.00
32131;BME280;18639;50.716;7.086;2023-04-29T07:25:28;100522.16;;;11.02;100.00
32131;BME280;18639;50.716;7.086;2023-04-29T07:27:54;100529.47;;;11.09;100.00
32131;BME280;18639;50.716;7.086;2023-04-29T07:30:20;100517.22;;;10.98;100.00
32131;BME280;18639;50.716;7.086;2023-04-29T07:32:45;100536.28;;;11.10;100.00
32131;BME280;18639;50.716;7.086;2023-04-29T07:35:11;100517.44;;;11.08;100.00
32131;BME280;18639;50.716;7.086;2023-04-29T07:37:36;100534.03;;;11.18;100.00
32131;BME280;18639;50.716;7.086;2023-04-29T07:40:01;100547.31;;;11.26;100.00
32131;BME280;18639;50.716;7.086;2023-04-29T07:42:26;100539.56;;;11.26;100.00
32131;BME280;18639;50.716;7.086;2023-04-29T07:44:52;100527.00;;;11.20;100.00
32131;BME280;18639;50.716;7.086;2023-04-29T07:47:17;100536.44;;;11.21;100.00
32131;BME280;18639;50.716;7.086;2023-04-29T07:49:42;100529.06;;;11.15;100.00
32131;BME280;18639;50.716;7.086;2023-04-29T07:52:09;100522.03;;;11.17;100.00
32131;BME280;18639;50.716;7.086;2023-04-29T07:54:37;100545.34;;;11.30;100.00
32131;BME280;18639;50.716;7.086;2023-04-29T07:57:02;100525.34;;;11.19;100.00
32131;BME280;18639;50.716;7.086;2023-04-29T07:59:30;100546.72;;;11.35;100.00
32131;BME280;18639;50.716;7.086;2023-04-29T08:01:55;100552.09;;;11.32;100.00
32131;BME280;18639;50.716;7.086;2023-04-29T08:04:21;100542.31;;;11.23;100.00
32131;BME280;18639;50.716;7.086;2023-04-29T08:06:47;100540.66;;;11.22;100.00
32131;BME280;18639;50.716;7.086;2023-04-29T08:09:13;100557.66;;;11.26;100.00
32131;BME280;18639;50.716;7.086;2023-04-29T08:11:38;100563.03;;;11.23;100.00
32131;BME280;18639;50.716;7.086;2023-04-29T08:14:04;100555.25;;;11.23;100.00
32131;BME280;18639;50.716;7.086;2023-04-29T08:16:30;100553.50;;;11.24;100.00
32131;BME280;18639;50.716;7.086;2023-04-29T08:18:56;100565.22;;;11.29;100.00
32131;BME280;18639;50.716;7.086;2023-04-29T08:21:21;100570.09;;;11.34;100.00
32131;BME280;18639;50.716;7.086;2023-04-29T08:23:47;100565.66;;;11.36;100.00
32131;BME280;18639;50.716;7.086;2023-04-29T08:26:12;100576.78;;;11.51;100.00
32131;BME280;18639;50.716;7.086;2023-04-29T08:28:38;100569.53;;;11.56;100.00
32131;BME280;18639;50.716;7.086;2023-04-29T08:31:03;100574.56;;;11.71;100.00
32131;BME280;18639;50.716;7.086;2023-04-29T08:33:31;100567.56;;;11.73;100.00
32131;BME280;18639;50.716;7.086;2023-04-29T08:35:58;100573.06;;;11.94;100.00
32131;BME280;18639;50.716;7.086;2023-04-29T08:38:24;100580.63;;;11.97;100.00
32131;BME280;18639;50.716;7.086;2023-04-29T08:40:49;100576.28;;;11.98;100.00
32131;BME280;18639;50.716;7.086;2023-04-29T08:43:15;100576.81;;;11.90;100.00
32131;BME280;18639;50.716;7.086;2023-04-29T08:45:41;100590.97;;;11.97;100.00
32131;BME280;18639;50.716;7.086;2023-04-29T08:48:08;100591.81;;;11.98;100.00
32131;BME280;18639;50.716;7.086;2023-04-29T08:50:38;100539.31;;;11.56;100.00
32131;BME280;18639;50.716;7.086;2023-04-29T08:53:05;100588.09;;;11.89;100.00
32131;BME280;18639;50.716;7.086;2023-04-29T08:55:34;100580.94;;;11.80;100.00
32131;BME280;18639;50.716;7.086;2023-04-29T08:58:01;100596.47;;;11.93;100.00
32131;BME280;18639;50.716;7.086;2023-04-29T09:00:26;100593.25;;;11.89;100.00
32131;BME280;18639;50.716;7.086;2023-04-29T09:02:53;100586.00;;;11.81;100.00
32131;BME280;18639;50.716;7.086;2023-04-29T09:05:20;100596.16;;;11.85;100.00
32131;BME280;18639;50.716;7.086;2023-04-29T09:07:46;100597.19;;;11.82;100.00
32131;BME280;18639;50.716;7.086;2023-04-29T09:10:13;100599.25;;;11.77;100.00
32131;BME280;18639;50.716;7.086;2023-04-29T09:12:39;100594.28;;;11.74;100.00
32131;BME280;18639;50.716;7.086;2023-04-29T09:15:04;100606.84;;;11.66;100.00
32131;BME280;18639;50.716;7.086;2023-04-29T09:17:46;100614.72;;;11.64;100.00
32131;BME280;18639;50.716;7.086;2023-04-29T09:20:25;100612.22;;;11.63;100.00
32131;BME280;18639;50.716;7.086;2023-04-29T09:22:59;100607.97;;;11.62;100.00
32131;BME280;18639;50.716;7.086;2023-04-29T09:25:25;100606.91;;;11.52;100.00
32131;BME280;18639;50.716;7.086;2023-04-29T09:27:52;100617.06;;;11.55;100.00
32131;BME280;18639;50.716;7.086;2023-04-29T09:30:17;100607.66;;;11.54;100.00
32131;BME280;18639;50.716;7.086;2023-04-29T09:32:44;100620.09;;;11.61;100.00
32131;BME280;18639;50.716;7.086;2023-04-29T09:35:24;100617.50;;;11.61;100.00
32131;BME280;18639;50.716;7.086;2023-04-29T09:37:50;100610.88;;;11.57;100.00
32131;BME280;18639;50.716;7.086;2023-04-29T09:40:32;100619.78;;;11.66;100.00
32131;BME280;18639;50.716;7.086;2023-04-29T09:42:59;100621.16;;;11.71;100.00
32131;BME280;18639;50.716;7.086;2023-04-29T09:45:38;100628.16;;;11.84;100.00
32131;BME280;18639;50.716;7.086;2023-04-29T09:48:06;100606.81;;;11.80;100.00
32131;BME280;18639;50.716;7.086;2023-04-29T09:50:37;100632.03;;;12.03;100.00
32131;BME280;18639;50.716;7.086;2023-04-29T09:53:05;100634.03;;;12.12;100.00
32131;BME280;18639;50.716;7.086;2023-04-29T09:55:56;100636.63;;;12.12;100.00
32131;BME280;18639;50.716;7.086;2023-04-29T09:58:32;100631.13;;;12.17;100.00
32131;BME280;18639;50.716;7.086;2023-04-29T10:01:02;100646.34;;;12.34;100.00
32131;BME280;18639;50.716;7.086;2023-04-29T10:03:37;100643.47;;;12.39;100.00
32131;BME280;18639;50.716;7.086;2023-04-29T10:06:04;100639.13;;;12.52;100.00
32131;BME280;18639;50.716;7.086;2023-04-29T10:08:31;100643.34;;;12.78;100.00
32131;BME280;18639;50.716;7.086;2023-04-29T10:11:01;100651.31;;;13.00;100.00
32131;BME280;18639;50.716;7.086;2023-04-29T10:13:28;100649.56;;;13.14;100.00
32131;BME280;18639;50.716;7.086;2023-04-29T10:18:53;100657.59;;;13.09;100.00
32131;BME280;18639;50.716;7.086;2023-04-29T10:21:30;100653.16;;;12.98;100.00
32131;BME280;18639;50.716;7.086;2023-04-29T10:24:00;100657.47;;;12.87;100.00
32131;BME280;18639;50.716;7.086;2023-04-29T10:26:28;100643.97;;;12.69;100.00
32131;BME280;18639;50.716;7.086;2023-04-29T10:28:55;100653.00;;;12.63;100.00
32131;BME280;18639;50.716;7.086;2023-04-29T10:31:21;100653.31;;;12.59;100.00
32131;BME280;18639;50.716;7.086;2023-04-29T10:33:48;100640.75;;;12.40;100.00
32131;BME280;18639;50.716;7.086;2023-04-29T10:36:14;100656.97;;;12.44;100.00
32131;BME280;18639;50.716;7.086;2023-04-29T10:38:47;100654.03;;;12.36;100.00
32131;BME280;18639;50.716;7.086;2023-04-29T10:41:23;100652.59;;;12.32;100.00
32131;BME280;18639;50.716;7.086;2023-04-29T10:43:53;100671.69;;;12.43;100.00
32131;BME280;18639;50.716;7.086;2023-04-29T10:46:22;100665.03;;;12.39;100.00
32131;BME280;18639;50.716;7.086;2023-04-29T10:48:50;100672.38;;;12.45;100.00
32131;BME280;18639;50.716;7.086;2023-04-29T10:51:38;100677.69;;;12.44;100.00
32131;BME280;18639;50.716;7.086;2023-04-29T10:54:07;100678.63;;;12.43;100.00
32131;BME280;18639;50.716;7.086;2023-04-29T10:59:04;100678.72;;;12.29;100.00
32131;BME280;18639;50.716;7.086;2023-04-29T11:01:48;100680.75;;;12.23;100.00
32131;BME280;18639;50.716;7.086;2023-04-29T11:04:16;100680.03;;;12.21;100.00
32131;BME280;18639;50.716;7.086;2023-04-29T11:06:44;100687.91;;;12.20;100.00
32131;BME280;18639;50.716;7.086;2023-04-29T11:11:47;100686.38;;;12.17;100.00
32131;BME280;18639;50.716;7.086;2023-04-29T11:14:22;100682.13;;;12.16;100.00
32131;BME280;18639;50.716;7.086;2023-04-29T11:16:51;100691.13;;;12.11;100.00
32131;BME280;18639;50.716;7.086;2023-04-29T11:19:16;100677.72;;;12.04;100.00
32131;BME280;18639;50.716;7.086;2023-04-29T11:21:44;100690.91;;;12.14;100.00
32131;BME280;18639;50.716;7.086;2023-04-29T11:24:10;100689.13;;;12.14;100.00
32131;BME280;18639;50.716;7.086;2023-04-29T11:26:36;100673.69;;;12.00;100.00
32131;BME280;18639;50.716;7.086;2023-04-29T11:29:03;100686.75;;;12.11;100.00
32131;BME280;18639;50.716;7.086;2023-04-29T11:31:30;100685.78;;;12.00;100.00
32131;BME280;18639;50.716;7.086;2023-04-29T11:33:56;100694.00;;;12.06;100.00
32131;BME280;18639;50.716;7.086;2023-04-29T11:36:22;100696.28;;;12.11;100.00
32131;BME280;18639;50.716;7.086;2023-04-29T11:38:47;100690.16;;;11.99;100.00
32131;BME280;18639;50.716;7.086;2023-04-29T11:41:13;100695.22;;;12.01;100.00
32131;BME280;18639;50.716;7.086;2023-04-29T11:43:40;100709.63;;;12.05;100.00
32131;BME280;18639;50.716;7.086;2023-04-29T11:46:15;100695.22;;;12.01;100.00
32131;BME280;18639;50.716;7.086;2023-04-29T11:48:48;100708.94;;;12.15;100.00
32131;BME280;18639;50.716;7.086;2023-04-29T11:51:15;100695.56;;;12.09;100.00
32131;BME280;18639;50.716;7.086;2023-04-29T11:57:00;100665.47;;;11.67;100.00
32131;BME280;18639;50.716;7.086;2023-04-29T11:59:37;100641.38;;;11.52;100.00
32131;BME280;18639;50.716;7.086;2023-04-29T12:02:03;100713.53;;;11.98;100.00
32131;BME280;18639;50.716;7.086;2023-04-29T12:04:28;100671.94;;;11.74;100.00
32131;BME280;18639;50.716;7.086;2023-04-29T12:09:50;100695.19;;;11.88;100.00
32131;BME280;18639;50.716;7.086;2023-04-29T12:12:33;100654.28;;;11.66;100.00
32131;BME280;18639;50.716;7.086;2023-04-29T12:15:03;100677.50;;;11.95;100.00
32131;BME280;18639;50.716;7.086;2023-04-29T12:17:31;100691.28;;;11.95;100.00
32131;BME280;18639;50.716;7.086;2023-04-29T12:19:57;100690.94;;;11.87;100.00
32131;BME280;18639;50.716;7.086;2023-04-29T12:22:30;100695.19;;;11.88;100.00
32131;BME280;18639;50.716;7.086;2023-04-29T12:25:37;100653.25;;;11.69;100.00
32131;BME280;18639;50.716;7.086;2023-04-29T12:28:05;100697.28;;;11.96;100.00
32131;BME280;18639;50.716;7.086;2023-04-29T12:30:33;100720.91;;;12.04;100.00
32131;BME280;18639;50.716;7.086;2023-04-29T12:32:59;100723.41;;;12.05;100.00
32131;BME280;18639;50.716;7.086;2023-04-29T12:35:24;100716.78;;;12.01;100.00
32131;BME280;18639;50.716;7.086;2023-04-29T12:37:50;100712.22;;;12.05;100.00
32131;BME280;18639;50.716;7.086;2023-04-29T12:40:16;100714.59;;;12.08;100.00
32131;BME280;18639;50.716;7.086;2023-04-29T12:42:42;100728.44;;;12.21;100.00
32131;BME280;18639;50.716;7.086;2023-04-29T12:45:31;100728.00;;;12.14;100.00
32131;BME280;18639;50.716;7.086;2023-04-29T12:47:59;100718.25;;;12.05;100.00
32131;BME280;18639;50.716;7.086;2023-04-29T12:50:36;100723.56;;;12.16;100.00
32131;BME280;18639;50.716;7.086;2023-04-29T12:53:07;100716.81;;;12.14;100.00
32131;BME280;18639;50.716;7.086;2023-04-29T12:55:33;100733.00;;;12.17;100.00
32131;BME280;18639;50.716;7.086;2023-04-29T12:58:00;100717.50;;;12.03;100.00
32131;BME280;18639;50.716;7.086;2023-04-29T13:00:26;100741.25;;;12.10;100.00
32131;BME280;18639;50.716;7.086;2023-04-29T13:02:52;100732.66;;;12.09;100.00
32131;BME280;18639;50.716;7.086;2023-04-29T13:05:17;100727.16;;;12.01;100.00